createdAt,value
2023-05-02T00:00:13.574Z,47.58
2023-05-02T00:02:42.341Z,42.55
2023-05-02T00:05:10.874Z,45.90
2023-05-02T00:07:39.616Z,47.70
2023-05-02T00:10:08.894Z,45.53
2023-05-02T00:12:39.919Z,45.28
2023-05-02T00:15:09.820Z,48.83
2023-05-02T00:17:38.369Z,51.17
2023-05-02T00:20:09.273Z,55.88
2023-05-02T00:22:38.025Z,46.05
2023-05-02T00:25:07.410Z,49.13
2023-05-02T00:27:36.084Z,50.08
2023-05-02T00:30:08.457Z,51.58
2023-05-02T00:32:37.025Z,49.28
2023-05-02T00:35:06.632Z,56.22
2023-05-02T00:37:35.930Z,60.17
2023-05-02T00:40:05.159Z,54.03
2023-05-02T00:42:35.960Z,53.35
2023-05-02T00:45:07.115Z,55.80
2023-05-02T00:47:36.181Z,53.53
2023-05-02T00:50:05.463Z,51.15
2023-05-02T00:52:34.287Z,48.47
2023-05-02T00:55:03.684Z,48.75
2023-05-02T00:57:32.254Z,50.45
2023-05-02T01:00:01.245Z,53.58
2023-05-02T01:02:39.253Z,55.80
2023-05-02T01:05:16.648Z,54.20
2023-05-02T01:08:02.082Z,59.42
2023-05-02T01:10:47.427Z,58.55
2023-05-02T01:13:23.318Z,63.22
2023-05-02T01:15:54.505Z,69.93
2023-05-02T01:18:27.477Z,66.68
2023-05-02T01:21:00.042Z,70.45
2023-05-02T01:23:34.771Z,76.05
2023-05-02T01:26:14.919Z,64.65
2023-05-02T01:29:01.065Z,68.07
2023-05-02T01:31:32.777Z,72.00
2023-05-02T01:34:02.558Z,72.53
2023-05-02T01:36:33.208Z,72.90
2023-05-02T01:39:03.517Z,70.15
2023-05-02T01:41:34.528Z,70.05
2023-05-02T01:44:05.006Z,70.63
2023-05-02T01:46:36.149Z,68.85
2023-05-02T01:49:07.835Z,77.57
2023-05-02T01:51:44.929Z,69.40
2023-05-02T01:54:15.963Z,63.88
2023-05-02T01:56:45.495Z,72.05
2023-05-02T01:59:19.441Z,66.90
2023-05-02T02:01:49.823Z,65.18
2023-05-02T02:04:21.719Z,60.10
2023-05-02T02:06:54.599Z,69.63
2023-05-02T02:09:24.236Z,68.85
2023-05-02T02:11:54.927Z,69.97
2023-05-02T02:14:27.281Z,72.53
2023-05-02T02:16:58.000Z,67.28
2023-05-02T02:19:26.474Z,68.30
2023-05-02T02:21:57.002Z,70.20
2023-05-02T02:24:27.039Z,75.68
2023-05-02T02:26:55.902Z,70.47
2023-05-02T02:29:25.720Z,65.38
2023-05-02T02:31:54.156Z,65.35
2023-05-02T02:34:23.024Z,69.80
2023-05-02T02:36:57.996Z,72.25
2023-05-02T02:39:41.354Z,76.78
2023-05-02T02:42:15.468Z,81.22
2023-05-02T02:44:56.090Z,79.57
2023-05-02T02:47:28.839Z,75.90
2023-05-02T02:50:13.656Z,85.25
2023-05-02T02:52:53.242Z,81.65
2023-05-02T02:55:41.554Z,82.22
2023-05-02T02:58:21.185Z,82.03
2023-05-02T03:00:51.617Z,84.43
2023-05-02T03:03:24.953Z,76.10
2023-05-02T03:05:55.825Z,73.37
2023-05-02T03:08:25.076Z,77.15
2023-05-02T03:10:53.463Z,70.95
2023-05-02T03:13:22.059Z,77.85
2023-05-02T03:16:29.669Z,68.05
2023-05-02T03:18:59.949Z,66.88
2023-05-02T03:21:31.433Z,68.38
2023-05-02T03:24:05.823Z,70.47
2023-05-02T03:26:34.275Z,65.93
2023-05-02T03:29:03.140Z,58.42
2023-05-02T03:31:36.906Z,60.38
2023-05-02T03:34:07.313Z,64.78
2023-05-02T03:36:37.533Z,59.80
2023-05-02T03:39:06.609Z,63.03
2023-05-02T03:41:36.117Z,61.03
2023-05-02T03:44:09.101Z,60.50
2023-05-02T03:46:38.426Z,54.33
2023-05-02T03:49:14.081Z,57.30
2023-05-02T03:51:45.388Z,55.10
2023-05-02T03:54:15.123Z,57.20
2023-05-02T03:56:44.458Z,59.60
2023-05-02T03:59:21.224Z,55.65
2023-05-02T04:01:50.439Z,60.53
2023-05-02T04:04:21.924Z,54.85
2023-05-02T04:06:53.346Z,56.83
2023-05-02T04:09:25.641Z,53.13
2023-05-02T04:11:58.921Z,59.55
2023-05-02T04:14:27.487Z,53.10
2023-05-02T04:16:57.806Z,58.50
2023-05-02T04:19:41.995Z,59.20
2023-05-02T04:22:11.135Z,53.03
2023-05-02T04:24:43.472Z,51.08
2023-05-02T04:27:14.481Z,55.92
2023-05-02T04:29:43.831Z,46.50
2023-05-02T04:32:12.984Z,60.85
2023-05-02T04:34:44.252Z,53.22
2023-05-02T04:37:12.926Z,61.72
2023-05-02T04:39:42.679Z,52.05
2023-05-02T04:42:16.762Z,52.95
2023-05-02T04:44:54.136Z,53.17
2023-05-02T04:47:23.102Z,53.83
2023-05-02T04:49:52.794Z,57.00
2023-05-02T04:52:21.502Z,49.15
2023-05-02T04:54:49.962Z,53.22
2023-05-02T04:57:18.506Z,50.78
2023-05-02T04:59:51.803Z,48.30
2023-05-02T05:02:20.325Z,48.53
2023-05-02T05:04:49.096Z,43.33
2023-05-02T05:07:20.436Z,40.78
2023-05-02T05:09:52.729Z,47.42
2023-05-02T05:12:23.285Z,45.85
2023-05-02T05:14:51.869Z,44.95
2023-05-02T05:18:12.237Z,43.17
2023-05-02T05:20:40.952Z,38.15
2023-05-02T05:23:11.371Z,32.03
2023-05-02T05:25:40.320Z,27.05
2023-05-02T05:28:09.572Z,28.55
2023-05-02T05:30:39.445Z,31.63
2023-05-02T05:33:11.123Z,28.90
2023-05-02T05:35:39.880Z,26.58
2023-05-02T05:38:08.235Z,26.70
2023-05-02T05:40:40.444Z,23.15
2023-05-02T05:43:10.446Z,26.67
2023-05-02T05:45:40.596Z,18.02
2023-05-02T05:48:09.074Z,20.15
2023-05-02T05:50:43.356Z,20.55
2023-05-02T05:53:11.851Z,19.27
2023-05-02T05:55:43.255Z,18.02
2023-05-02T05:58:12.253Z,21.90
2023-05-02T06:00:42.329Z,23.23
2023-05-02T06:03:11.413Z,23.02
2023-05-02T06:05:40.708Z,17.55
2023-05-02T06:08:09.815Z,17.70
2023-05-02T06:10:38.375Z,14.57
2023-05-02T06:13:08.311Z,16.80
2023-05-02T06:15:40.378Z,15.60
2023-05-02T06:18:09.845Z,15.10
2023-05-02T06:20:38.347Z,14.55
2023-05-02T06:23:06.788Z,18.15
2023-05-02T06:25:38.619Z,15.02
2023-05-02T06:28:09.412Z,14.07
2023-05-02T06:30:37.773Z,14.25
2023-05-02T06:33:06.835Z,16.45
2023-05-02T06:35:35.346Z,14.45
2023-05-02T06:38:03.751Z,13.60
2023-05-02T06:40:32.199Z,14.65
2023-05-02T06:43:00.764Z,12.07
2023-05-02T06:45:30.553Z,16.80
2023-05-02T06:47:58.953Z,14.68
2023-05-02T06:50:27.494Z,17.42
2023-05-02T06:52:55.836Z,14.13
2023-05-02T06:55:24.370Z,19.13
2023-05-02T06:57:53.635Z,16.95
2023-05-02T07:00:22.568Z,18.55
2023-05-02T07:02:52.634Z,17.13
2023-05-02T07:05:21.035Z,17.73
2023-05-02T07:07:49.412Z,14.75
2023-05-02T07:10:17.858Z,15.25
2023-05-02T07:12:46.250Z,14.57
2023-05-02T07:15:16.436Z,18.00
2023-05-02T07:17:44.806Z,15.52
2023-05-02T07:20:15.538Z,19.73
2023-05-02T07:22:43.916Z,16.10
2023-05-02T07:25:12.278Z,14.10
2023-05-02T07:27:41.220Z,14.40
2023-05-02T07:30:10.142Z,15.00
2023-05-02T07:32:38.502Z,15.40
2023-05-02T07:35:07.245Z,13.95
2023-05-02T07:37:37.022Z,14.43
2023-05-02T07:40:07.330Z,14.02
2023-05-02T07:42:36.229Z,14.48
2023-05-02T07:45:05.019Z,14.60
2023-05-02T07:47:34.120Z,15.60
2023-05-02T07:50:04.043Z,17.67
2023-05-02T07:52:32.532Z,14.65
2023-05-02T07:55:02.438Z,13.25
2023-05-02T07:57:30.801Z,12.23
2023-05-02T08:00:00.061Z,16.83
2023-05-02T08:02:28.929Z,14.05
2023-05-02T08:04:57.382Z,11.90
2023-05-02T08:07:26.050Z,11.32
2023-05-02T08:09:54.396Z,9.55
2023-05-02T08:12:24.150Z,10.15
2023-05-02T08:14:52.788Z,9.02
2023-05-02T08:17:21.763Z,11.35
2023-05-02T08:19:50.128Z,6.82
2023-05-02T08:22:18.651Z,8.40
2023-05-02T08:24:47.010Z,9.98
2023-05-02T08:27:15.968Z,7.25
2023-05-02T08:29:45.731Z,7.68
2023-05-02T08:32:14.207Z,5.88
2023-05-02T08:34:42.641Z,3.88
2023-05-02T08:37:12.068Z,5.15
2023-05-02T08:39:40.479Z,4.85
2023-05-02T08:42:09.150Z,4.40
2023-05-02T08:44:38.331Z,4.30
2023-05-02T08:47:12.035Z,3.65
2023-05-02T08:49:41.885Z,3.60
2023-05-02T08:52:12.159Z,2.60
2023-05-02T08:54:40.919Z,5.93
2023-05-02T08:57:09.229Z,3.90
2023-05-02T08:59:37.595Z,3.58
2023-05-02T09:02:13.922Z,4.00
2023-05-02T09:04:43.736Z,4.07
2023-05-02T09:07:12.144Z,3.22
2023-05-02T09:09:40.560Z,3.95
2023-05-02T09:12:08.953Z,3.30
2023-05-02T09:14:37.344Z,4.90
2023-05-02T09:17:05.799Z,4.45
2023-05-02T09:19:35.929Z,5.25
2023-05-02T09:22:04.250Z,4.45
2023-05-02T09:24:32.659Z,3.75
2023-05-02T09:27:03.767Z,3.60
2023-05-02T09:29:36.160Z,3.95
2023-05-02T09:32:06.462Z,4.38
2023-05-02T09:34:37.221Z,5.60
2023-05-02T09:37:06.600Z,5.72
2023-05-02T09:39:35.020Z,3.65
2023-05-02T09:42:03.884Z,3.33
2023-05-02T09:44:38.435Z,5.55
2023-05-02T09:47:06.950Z,4.18
2023-05-02T09:49:42.325Z,2.67
2023-05-02T09:52:15.103Z,2.78
2023-05-02T09:54:44.218Z,2.63
2023-05-02T09:57:12.791Z,3.28
2023-05-02T09:59:41.763Z,5.55
2023-05-02T10:02:12.052Z,3.63
2023-05-02T10:04:43.046Z,3.65
2023-05-02T10:07:13.375Z,5.40
2023-05-02T10:09:45.370Z,3.05
2023-05-02T10:12:16.592Z,1.98
2023-05-02T10:14:50.613Z,5.57
2023-05-02T10:17:28.119Z,3.03
2023-05-02T10:20:04.732Z,4.45
2023-05-02T10:22:34.945Z,2.97
2023-05-02T10:25:04.674Z,4.15
2023-05-02T10:27:34.004Z,4.28
2023-05-02T10:30:04.372Z,2.28
2023-05-02T10:32:34.234Z,3.55
2023-05-02T10:35:07.451Z,4.40
2023-05-02T10:37:39.733Z,5.85
2023-05-02T10:40:11.959Z,2.75
2023-05-02T10:42:43.884Z,3.17
2023-05-02T10:45:14.489Z,5.22
2023-05-02T10:47:42.999Z,2.90
2023-05-02T10:50:13.074Z,2.97
2023-05-02T10:52:41.948Z,3.05
2023-05-02T10:55:21.026Z,5.05
2023-05-02T10:58:29.610Z,4.70
2023-05-02T11:01:41.655Z,3.42
2023-05-02T11:04:11.622Z,4.53
2023-05-02T11:07:17.096Z,3.22
2023-05-02T11:09:46.844Z,4.68
2023-05-02T11:12:44.696Z,3.20
2023-05-02T11:15:13.175Z,4.40
2023-05-02T11:17:59.797Z,4.07
2023-05-02T11:20:33.252Z,3.80
2023-05-02T11:23:25.791Z,5.32
2023-05-02T11:26:00.368Z,5.63
2023-05-02T11:28:47.933Z,3.83
2023-05-02T11:32:04.855Z,4.88
2023-05-02T11:34:44.880Z,4.75
2023-05-02T11:37:14.603Z,4.43
2023-05-02T11:39:44.429Z,5.30
2023-05-02T11:42:29.384Z,4.35
2023-05-02T11:44:59.263Z,5.63
2023-05-02T11:47:29.377Z,4.82
2023-05-02T11:50:05.319Z,5.53
2023-05-02T11:52:38.217Z,3.75
2023-05-02T11:55:09.722Z,3.70
2023-05-02T11:57:55.873Z,3.42
2023-05-02T12:00:33.541Z,3.63
2023-05-02T12:03:02.016Z,5.97
2023-05-02T12:05:37.360Z,2.83
2023-05-02T12:08:27.387Z,4.20
2023-05-02T12:10:57.653Z,4.55
2023-05-02T12:13:32.222Z,5.05
2023-05-02T12:16:26.343Z,4.22
2023-05-02T12:18:56.727Z,4.93
2023-05-02T12:21:25.303Z,5.22
2023-05-02T12:24:04.409Z,7.18
2023-05-02T12:26:32.971Z,5.25
2023-05-02T12:29:03.091Z,7.95
2023-05-02T12:31:40.992Z,4.82
2023-05-02T12:34:10.532Z,6.28
2023-05-02T12:36:45.103Z,7.72
2023-05-02T12:39:14.256Z,4.82
2023-05-02T12:41:50.149Z,5.05
2023-05-02T12:44:38.580Z,3.85
2023-05-02T12:47:07.660Z,6.70
2023-05-02T12:50:03.805Z,5.43
2023-05-02T12:52:49.083Z,3.65
2023-05-02T12:55:32.827Z,4.03
2023-05-02T12:58:01.999Z,6.93
2023-05-02T13:00:33.126Z,4.80
2023-05-02T13:03:29.520Z,6.13
2023-05-02T13:05:58.409Z,5.72
2023-05-02T13:08:26.740Z,5.18
2023-05-02T13:11:19.902Z,6.65
2023-05-02T13:13:48.458Z,7.30
2023-05-02T13:16:18.406Z,4.50
2023-05-02T13:18:53.098Z,6.70
2023-05-02T13:21:46.767Z,6.65
2023-05-02T13:24:17.301Z,7.55
2023-05-02T13:26:45.672Z,5.72
2023-05-02T13:29:22.070Z,7.05
2023-05-02T13:31:51.764Z,6.28
2023-05-02T13:34:20.101Z,7.72
2023-05-02T13:36:54.369Z,7.00
2023-05-02T13:39:31.223Z,5.47
2023-05-02T13:42:00.098Z,8.35
2023-05-02T13:44:28.513Z,5.93
2023-05-02T13:47:24.044Z,6.22
2023-05-02T13:49:52.453Z,4.90
2023-05-02T13:52:21.068Z,5.82
2023-05-02T13:54:54.255Z,5.60
2023-05-02T13:57:39.910Z,6.35
2023-05-02T14:00:09.964Z,7.43
2023-05-02T14:02:48.241Z,6.55
2023-05-02T14:05:36.430Z,5.35
2023-05-02T14:08:05.636Z,6.53
2023-05-02T14:10:40.029Z,5.68
2023-05-02T14:13:24.498Z,5.60
2023-05-02T14:15:53.696Z,4.30
2023-05-02T14:18:23.808Z,5.32
2023-05-02T14:23:42.271Z,5.97
2023-05-02T14:26:10.700Z,8.43
2023-05-02T14:28:42.640Z,5.35
2023-05-02T14:31:20.485Z,3.88
2023-05-02T14:33:50.691Z,4.32
2023-05-02T14:36:19.055Z,4.82
2023-05-02T14:39:00.598Z,4.28
2023-05-02T14:41:29.083Z,5.50
2023-05-02T14:43:57.524Z,4.35
2023-05-02T14:46:26.142Z,4.80
2023-05-02T14:48:59.740Z,4.93
2023-05-02T14:51:47.798Z,3.90
2023-05-02T14:54:17.056Z,4.65
2023-05-02T14:56:49.460Z,5.32
2023-05-02T14:59:26.601Z,7.60
2023-05-02T15:01:55.054Z,6.20
2023-05-02T15:04:27.150Z,5.22
2023-05-02T15:06:59.529Z,6.45
2023-05-02T15:09:39.493Z,6.75
2023-05-02T15:12:07.881Z,5.40
2023-05-02T15:14:36.286Z,6.60
2023-05-02T15:17:05.653Z,5.07
2023-05-02T15:19:42.003Z,4.93
2023-05-02T15:22:11.481Z,6.60
2023-05-02T15:24:40.647Z,5.70
2023-05-02T15:27:09.864Z,7.13
2023-05-02T15:30:06.585Z,8.00
2023-05-02T15:32:35.632Z,6.47
2023-05-02T15:35:07.868Z,7.70
2023-05-02T15:37:47.147Z,6.88
2023-05-02T15:40:15.526Z,7.53
2023-05-02T15:42:43.848Z,5.05
2023-05-02T15:45:14.828Z,6.03
2023-05-02T15:47:43.246Z,6.85
2023-05-02T15:50:22.678Z,6.70
2023-05-02T15:52:51.019Z,6.07
2023-05-02T15:55:21.266Z,7.65
2023-05-02T15:57:51.898Z,7.68
2023-05-02T16:00:23.030Z,5.35
2023-05-02T16:02:51.430Z,8.10
2023-05-02T16:05:20.156Z,7.05
2023-05-02T16:07:59.384Z,7.72
2023-05-02T16:10:28.712Z,6.90
2023-05-02T16:13:06.165Z,7.35
2023-05-02T16:15:34.814Z,5.88
2023-05-02T16:18:07.189Z,6.38
2023-05-02T16:20:36.686Z,5.85
2023-05-02T16:23:06.481Z,9.95
2023-05-02T16:25:34.926Z,5.72
2023-05-02T16:28:07.048Z,7.18
2023-05-02T16:30:44.837Z,5.70
2023-05-02T16:33:13.924Z,7.53
2023-05-02T16:35:42.617Z,5.57
2023-05-02T16:38:30.303Z,6.95
2023-05-02T16:41:05.587Z,6.65
2023-05-02T16:43:34.240Z,6.03
2023-05-02T16:46:08.700Z,9.30
2023-05-02T16:48:46.185Z,8.43
2023-05-02T16:51:14.539Z,5.20
2023-05-02T16:53:46.077Z,5.32
2023-05-02T16:56:15.333Z,7.20
2023-05-02T16:59:14.836Z,6.68
2023-05-02T17:01:43.378Z,6.95
2023-05-02T17:04:19.492Z,6.68
2023-05-02T17:06:57.336Z,8.57
2023-05-02T17:09:27.060Z,6.80
2023-05-02T17:11:58.186Z,8.82
2023-05-02T17:14:30.375Z,8.65
2023-05-02T17:17:02.168Z,5.13
2023-05-02T17:19:31.222Z,5.68
2023-05-02T17:22:00.652Z,5.32
2023-05-02T17:24:52.737Z,5.68
2023-05-02T17:27:21.429Z,5.40
2023-05-02T17:29:49.772Z,4.28
2023-05-02T17:32:18.485Z,3.92
2023-05-02T17:34:57.617Z,4.28
2023-05-02T17:37:27.488Z,5.43
2023-05-02T17:39:57.303Z,7.05
2023-05-02T17:42:46.779Z,6.13
2023-05-02T17:45:15.288Z,5.10
2023-05-02T17:47:43.693Z,4.72
2023-05-02T17:50:19.128Z,6.68
2023-05-02T17:53:15.428Z,8.63
2023-05-02T17:55:47.566Z,7.35
2023-05-02T17:58:36.937Z,9.77
2023-05-02T18:01:08.989Z,4.70
2023-05-02T18:03:39.649Z,6.75
2023-05-02T18:06:36.096Z,7.03
2023-05-02T18:09:04.722Z,8.10
2023-05-02T18:11:43.787Z,4.57
2023-05-02T18:14:22.539Z,5.90
2023-05-02T18:16:50.929Z,6.43
2023-05-02T18:19:24.011Z,5.68
2023-05-02T18:22:00.677Z,4.60
2023-05-02T18:24:41.903Z,5.93
2023-05-02T18:27:12.175Z,7.55
2023-05-02T18:29:46.942Z,7.53
2023-05-02T18:32:25.847Z,5.45
2023-05-02T18:34:54.622Z,8.45
2023-05-02T18:37:30.997Z,7.55
2023-05-02T18:40:05.031Z,6.55
2023-05-02T18:42:46.292Z,6.90
2023-05-02T18:45:15.685Z,5.43
2023-05-02T18:47:47.254Z,7.15
2023-05-02T18:50:26.845Z,5.65
2023-05-02T18:52:55.289Z,7.93
2023-05-02T18:55:25.194Z,7.40
2023-05-02T18:57:55.710Z,7.97
2023-05-02T19:00:37.246Z,7.47
2023-05-02T19:03:06.235Z,4.47
2023-05-02T19:05:35.490Z,5.13
2023-05-02T19:08:05.334Z,8.15
2023-05-02T19:10:36.406Z,6.30
2023-05-02T19:13:06.179Z,7.13
2023-05-02T19:15:35.155Z,8.85
2023-05-02T19:18:03.670Z,6.47
2023-05-02T19:20:32.095Z,7.65
2023-05-02T19:23:18.415Z,5.40
2023-05-02T19:25:49.205Z,7.47
2023-05-02T19:28:19.649Z,9.52
2023-05-02T19:30:50.900Z,6.82
2023-05-02T19:33:19.670Z,7.13
2023-05-02T19:35:48.089Z,8.40
2023-05-02T19:38:16.567Z,5.88
2023-05-02T19:40:44.900Z,8.20
2023-05-02T19:43:13.308Z,6.53
2023-05-02T19:45:43.078Z,5.40
2023-05-02T19:48:12.855Z,10.57
2023-05-02T19:50:42.591Z,6.25
2023-05-02T19:53:11.619Z,7.72
2023-05-02T19:55:40.086Z,8.48
2023-05-02T19:58:08.563Z,7.10
2023-05-02T20:00:36.946Z,5.55
2023-05-02T20:03:07.169Z,8.25
2023-05-02T20:05:36.221Z,5.78
2023-05-02T20:08:06.285Z,6.88
2023-05-02T20:10:34.975Z,6.47
2023-05-02T20:13:03.611Z,8.40
2023-05-02T20:15:32.021Z,9.23
2023-05-02T20:18:04.498Z,6.72
2023-05-02T20:20:34.391Z,9.25
2023-05-02T20:23:02.795Z,8.35
2023-05-02T20:25:32.536Z,13.35
2023-05-02T20:28:01.057Z,7.63
2023-05-02T20:30:29.431Z,6.68
2023-05-02T20:33:07.033Z,9.13
2023-05-02T20:35:44.266Z,6.10
2023-05-02T20:38:13.019Z,9.57
2023-05-02T20:40:42.636Z,7.55
2023-05-02T20:43:12.307Z,6.00
2023-05-02T20:45:41.089Z,8.30
2023-05-02T20:48:09.731Z,8.38
2023-05-02T20:50:38.182Z,8.23
2023-05-02T20:53:08.063Z,7.38
2023-05-02T20:55:36.568Z,9.45
2023-05-02T20:58:04.973Z,10.18
2023-05-02T21:00:33.391Z,8.60
2023-05-02T21:03:01.887Z,7.10
2023-05-02T21:05:30.277Z,7.60
2023-05-02T21:07:58.820Z,7.93
2023-05-02T21:10:30.670Z,8.45
2023-05-02T21:12:59.028Z,7.65
2023-05-02T21:15:27.338Z,10.45
2023-05-02T21:18:02.473Z,8.93
2023-05-02T21:20:30.883Z,9.75
2023-05-02T21:22:59.277Z,11.80
2023-05-02T21:25:29.037Z,9.63
2023-05-02T21:27:57.401Z,9.55
2023-05-02T21:30:25.757Z,12.57
2023-05-02T21:32:54.138Z,9.95
2023-05-02T21:35:22.790Z,8.32
2023-05-02T21:37:51.126Z,9.27
2023-05-02T21:40:19.574Z,8.80
2023-05-02T21:42:49.280Z,6.18
2023-05-02T21:45:17.908Z,9.50
2023-05-02T21:47:47.010Z,9.45
2023-05-02T21:50:15.627Z,7.93
2023-05-02T21:52:46.641Z,10.45
2023-05-02T21:55:15.015Z,13.32
2023-05-02T21:57:43.348Z,12.50
2023-05-02T22:00:14.038Z,9.70
2023-05-02T22:02:43.514Z,10.13
2023-05-02T22:05:13.594Z,9.48
2023-05-02T22:07:42.035Z,8.52
2023-05-02T22:10:11.516Z,12.70
2023-05-02T22:12:39.841Z,10.40
2023-05-02T22:15:09.547Z,7.90
2023-05-02T22:17:42.411Z,10.32
2023-05-02T22:20:12.920Z,12.88
2023-05-02T22:22:41.636Z,9.32
2023-05-02T22:25:10.563Z,7.50
2023-05-02T22:27:38.989Z,9.05
2023-05-02T22:30:09.674Z,9.95
2023-05-02T22:32:39.435Z,8.48
2023-05-02T22:35:09.088Z,10.25
2023-05-02T22:37:37.715Z,12.80
2023-05-02T22:40:10.268Z,9.32
2023-05-02T22:42:39.038Z,8.27
2023-05-02T22:45:09.371Z,9.00
2023-05-02T22:47:41.247Z,10.15
2023-05-02T22:50:11.625Z,10.07
2023-05-02T22:52:39.979Z,9.52
2023-05-02T22:55:10.298Z,11.07
2023-05-02T22:57:39.029Z,13.20
2023-05-02T23:00:09.385Z,12.00
2023-05-02T23:02:39.290Z,10.80
2023-05-02T23:05:09.487Z,8.00
2023-05-02T23:07:37.836Z,12.35
2023-05-02T23:10:07.473Z,8.63
2023-05-02T23:12:35.881Z,9.02
2023-05-02T23:15:04.704Z,11.13
2023-05-02T23:17:33.255Z,9.20
2023-05-02T23:20:03.472Z,10.50
2023-05-02T23:22:32.437Z,11.55
2023-05-02T23:25:01.078Z,12.43
2023-05-02T23:27:29.621Z,10.50
2023-05-02T23:29:58.236Z,12.15
2023-05-02T23:32:26.893Z,9.82
2023-05-02T23:34:56.044Z,10.30
2023-05-02T23:37:25.931Z,9.50
2023-05-02T23:39:54.394Z,13.07
2023-05-02T23:42:22.751Z,12.30
2023-05-02T23:44:51.137Z,9.88
2023-05-02T23:47:19.963Z,8.00
2023-05-02T23:49:48.749Z,9.55
2023-05-02T23:52:17.535Z,10.15
2023-05-02T23:54:47.313Z,10.13
2023-05-02T23:57:15.807Z,10.43
2023-05-02T23:59:44.176Z,8.82
